VJT2KM KVNY-KASE
Flight info
| Callsign | VJT2KM |
|---|---|
| Flight time | N/A |
| Altitude | 41000 |
| Route | HAYEZ9 LAS BAWER ERRDA LOYYD1 |
| Aircraft | CL60/M-SBDE1E2E3FGHIJ1J4J5J7M3RWXYZ/LB1V1D1 |
Departure
| Time | N/A |
|---|---|
| Airport | Van Nuys Airport (KVNY) |
Arrival
| Time | 2026-04-27 15:28 |
|---|---|
| Airport | Aspen-Pitkin County Airport (Sardy Field) (KASE) |
| Time | Latitude | Longitude | Altitude | Speed | Heading |
|---|---|---|---|---|---|
| 2026-04-27 14:51 | 38.17106 | -110.98983 | 40990 ft | 527 kts | 62° |
| 2026-04-27 14:51 | 38.18796 | -110.94833 | 40992 ft | 527 kts | 62° |
| 2026-04-27 14:51 | 38.22151 | -110.86573 | 40993 ft | 527 kts | 62° |
| 2026-04-27 14:52 | 38.25517 | -110.78265 | 41002 ft | 527 kts | 62° |
| 2026-04-27 14:52 | 38.28860 | -110.69992 | 40996 ft | 526 kts | 62° |
| 2026-04-27 14:53 | 38.32086 | -110.61989 | 40980 ft | 527 kts | 62° |
| 2026-04-27 14:53 | 38.35433 | -110.53662 | 41001 ft | 526 kts | 62° |
| 2026-04-27 14:54 | 38.38663 | -110.45606 | 41000 ft | 525 kts | 62° |
| 2026-04-27 14:54 | 38.41976 | -110.37321 | 40984 ft | 525 kts | 62° |
| 2026-04-27 14:55 | 38.45196 | -110.29247 | 40983 ft | 524 kts | 63° |
| 2026-04-27 14:55 | 38.48376 | -110.21252 | 40982 ft | 524 kts | 63° |
| 2026-04-27 14:56 | 38.51666 | -110.12957 | 40985 ft | 524 kts | 63° |
| 2026-04-27 14:56 | 38.54225 | -110.04292 | 40984 ft | 524 kts | 77° |
| 2026-04-27 14:57 | 38.55959 | -109.95224 | 40978 ft | 524 kts | 77° |
| 2026-04-27 14:57 | 38.57684 | -109.86155 | 40976 ft | 524 kts | 77° |
| 2026-04-27 14:58 | 38.59399 | -109.77109 | 40978 ft | 525 kts | 77° |
| 2026-04-27 14:58 | 38.61051 | -109.68356 | 40979 ft | 525 kts | 77° |
| 2026-04-27 14:59 | 38.62764 | -109.59242 | 40983 ft | 526 kts | 77° |
| 2026-04-27 14:59 | 38.64460 | -109.50182 | 40985 ft | 526 kts | 77° |
| 2026-04-27 15:00 | 38.66159 | -109.41065 | 40971 ft | 527 kts | 77° |
| 2026-04-27 15:00 | 38.67851 | -109.31943 | 40959 ft | 527 kts | 78° |
| 2026-04-27 15:01 | 38.69502 | -109.23003 | 40960 ft | 526 kts | 77° |
| 2026-04-27 15:01 | 38.71106 | -109.14280 | 40970 ft | 526 kts | 78° |
| 2026-04-27 15:02 | 38.72739 | -109.05358 | 40995 ft | 526 kts | 78° |
| 2026-04-27 15:02 | 38.74408 | -108.96199 | 41001 ft | 527 kts | 78° |
| 2026-04-27 15:03 | 38.76070 | -108.87032 | 40524 ft | 537 kts | 78° |
| 2026-04-27 15:03 | 38.76914 | -108.82358 | 39889 ft | 538 kts | 78° |
| 2026-04-27 15:03 | 38.77743 | -108.77759 | 39241 ft | 536 kts | 77° |
| 2026-04-27 15:04 | 38.78581 | -108.73100 | 38526 ft | 535 kts | 78° |
| 2026-04-27 15:04 | 38.79413 | -108.68462 | 37839 ft | 534 kts | 77° |
| 2026-04-27 15:04 | 38.80288 | -108.63837 | 37141 ft | 533 kts | 74° |
| 2026-04-27 15:04 | 38.81497 | -108.59350 | 36405 ft | 531 kts | 69° |
| 2026-04-27 15:05 | 38.82815 | -108.54926 | 35726 ft | 528 kts | 69° |
| 2026-04-27 15:05 | 38.84110 | -108.50555 | 35074 ft | 529 kts | 69° |
| 2026-04-27 15:05 | 38.85419 | -108.46124 | 34381 ft | 530 kts | 69° |
| 2026-04-27 15:05 | 38.86718 | -108.41722 | 33543 ft | 528 kts | 69° |
| 2026-04-27 15:06 | 38.88001 | -108.37362 | 32942 ft | 519 kts | 69° |
| 2026-04-27 15:06 | 38.89285 | -108.32989 | 32246 ft | 512 kts | 69° |
| 2026-04-27 15:06 | 38.90521 | -108.28775 | 31588 ft | 510 kts | 69° |
| 2026-04-27 15:06 | 38.91783 | -108.24466 | 30915 ft | 508 kts | 69° |
| 2026-04-27 15:07 | 38.92888 | -108.20687 | 30248 ft | 506 kts | 69° |
| 2026-04-27 15:07 | 38.94104 | -108.16521 | 29654 ft | 498 kts | 69° |
| 2026-04-27 15:07 | 38.95289 | -108.12450 | 28969 ft | 493 kts | 69° |
| 2026-04-27 15:07 | 38.96456 | -108.08436 | 28400 ft | 486 kts | 69° |
| 2026-04-27 15:08 | 38.97635 | -108.04376 | 27882 ft | 480 kts | 69° |
| 2026-04-27 15:08 | 38.98795 | -108.00370 | 27472 ft | 477 kts | 69° |
| 2026-04-27 15:08 | 38.99948 | -107.96385 | 26928 ft | 476 kts | 69° |
| 2026-04-27 15:08 | 39.01089 | -107.92432 | 26475 ft | 468 kts | 69° |
| 2026-04-27 15:09 | 39.02213 | -107.88534 | 25965 ft | 456 kts | 69° |
| 2026-04-27 15:09 | 39.03294 | -107.84779 | 25507 ft | 445 kts | 69° |
| 2026-04-27 15:09 | 39.04355 | -107.81091 | 25052 ft | 434 kts | 69° |
| 2026-04-27 15:09 | 39.05385 | -107.77504 | 24606 ft | 424 kts | 69° |
| 2026-04-27 15:10 | 39.06390 | -107.73998 | 24192 ft | 414 kts | 69° |
| 2026-04-27 15:10 | 39.07385 | -107.70526 | 23758 ft | 406 kts | 69° |
| 2026-04-27 15:10 | 39.08344 | -107.67175 | 23356 ft | 398 kts | 69° |
| 2026-04-27 15:10 | 39.09288 | -107.63870 | 22952 ft | 390 kts | 69° |
| 2026-04-27 15:11 | 39.10219 | -107.60609 | 22563 ft | 381 kts | 69° |
| 2026-04-27 15:11 | 39.11107 | -107.57560 | 22167 ft | 374 kts | 69° |
| 2026-04-27 15:11 | 39.12019 | -107.54451 | 21786 ft | 367 kts | 69° |
| 2026-04-27 15:11 | 39.12879 | -107.51516 | 21338 ft | 363 kts | 69° |
| 2026-04-27 15:12 | 39.13762 | -107.48498 | 20994 ft | 355 kts | 69° |
| 2026-04-27 15:12 | 39.14623 | -107.45556 | 20635 ft | 349 kts | 68° |
| 2026-04-27 15:12 | 39.15469 | -107.42656 | 20264 ft | 343 kts | 69° |
| 2026-04-27 15:12 | 39.16088 | -107.39728 | 19913 ft | 337 kts | 85° |
| 2026-04-27 15:13 | 39.16111 | -107.36764 | 19694 ft | 326 kts | 92° |
| 2026-04-27 15:13 | 39.16067 | -107.33889 | 19635 ft | 313 kts | 92° |
| 2026-04-27 15:13 | 39.16031 | -107.31065 | 19429 ft | 319 kts | 92° |
| 2026-04-27 15:13 | 39.15989 | -107.28059 | 19266 ft | 361 kts | 92° |
| 2026-04-27 15:14 | 39.15940 | -107.24618 | 19047 ft | 402 kts | 92° |
| 2026-04-27 15:14 | 39.15888 | -107.20938 | 18861 ft | 415 kts | 92° |
| 2026-04-27 15:14 | 39.15836 | -107.17219 | 18641 ft | 412 kts | 92° |
| 2026-04-27 15:14 | 39.15782 | -107.13528 | 18458 ft | 409 kts | 92° |
| 2026-04-27 15:15 | 39.15728 | -107.09858 | 18231 ft | 409 kts | 92° |
| 2026-04-27 15:15 | 39.15673 | -107.06210 | 18040 ft | 407 kts | 92° |
| 2026-04-27 15:15 | 39.15617 | -107.02564 | 17851 ft | 407 kts | 92° |
| 2026-04-27 15:15 | 39.15561 | -106.98949 | 17613 ft | 405 kts | 91° |
| 2026-04-27 15:16 | 39.15504 | -106.95412 | 17401 ft | 403 kts | 91° |
| 2026-04-27 15:16 | 39.15498 | -106.91811 | 17170 ft | 402 kts | 86° |
| 2026-04-27 15:16 | 39.16030 | -106.88418 | 16953 ft | 398 kts | 70° |
| 2026-04-27 15:16 | 39.17258 | -106.85265 | 16721 ft | 396 kts | 54° |
| 2026-04-27 15:17 | 39.18991 | -106.82483 | 16428 ft | 394 kts | 48° |
| 2026-04-27 15:17 | 39.20742 | -106.79838 | 16206 ft | 390 kts | 48° |
| 2026-04-27 15:17 | 39.22545 | -106.77221 | 15975 ft | 386 kts | 42° |
| 2026-04-27 15:17 | 39.24671 | -106.75285 | 15708 ft | 365 kts | 24° |
| 2026-04-27 15:18 | 39.27000 | -106.74301 | 15428 ft | 346 kts | 7° |
| 2026-04-27 15:18 | 39.29369 | -106.74023 | 15154 ft | 331 kts | 0° |
| 2026-04-27 15:18 | 39.31610 | -106.73865 | 14929 ft | 318 kts | 1° |
| 2026-04-27 15:18 | 39.33796 | -106.73704 | 14678 ft | 308 kts | 1° |
| 2026-04-27 15:19 | 39.35944 | -106.73548 | 14441 ft | 307 kts | 1° |
| 2026-04-27 15:19 | 39.38075 | -106.73394 | 14193 ft | 305 kts | 1° |
| 2026-04-27 15:19 | 39.40163 | -106.73241 | 13946 ft | 296 kts | 1° |
| 2026-04-27 15:19 | 39.42200 | -106.73093 | 13705 ft | 288 kts | 1° |
| 2026-04-27 15:20 | 39.44175 | -106.72950 | 13567 ft | 277 kts | 1° |
| 2026-04-27 15:20 | 39.46033 | -106.73183 | 13574 ft | 258 kts | 341° |
| 2026-04-27 15:20 | 39.47565 | -106.74193 | 13573 ft | 246 kts | 320° |
| 2026-04-27 15:20 | 39.48758 | -106.75802 | 13564 ft | 247 kts | 305° |
| 2026-04-27 15:21 | 39.49747 | -106.77621 | 13576 ft | 247 kts | 303° |
| 2026-04-27 15:21 | 39.50738 | -106.79451 | 13553 ft | 247 kts | 303° |
| 2026-04-27 15:21 | 39.51476 | -106.81446 | 13568 ft | 244 kts | 281° |
| 2026-04-27 15:21 | 39.51669 | -106.83644 | 13559 ft | 247 kts | 274° |
| 2026-04-27 15:22 | 39.51815 | -106.85854 | 13545 ft | 246 kts | 275° |
| 2026-04-27 15:22 | 39.51965 | -106.88046 | 13555 ft | 245 kts | 275° |
| 2026-04-27 15:22 | 39.52028 | -106.90289 | 13457 ft | 249 kts | 266° |
| 2026-04-27 15:22 | 39.51699 | -106.92455 | 13304 ft | 245 kts | 252° |
| 2026-04-27 15:23 | 39.50970 | -106.94445 | 13146 ft | 247 kts | 238° |
| 2026-04-27 15:23 | 39.49877 | -106.96152 | 12981 ft | 247 kts | 224° |
| 2026-04-27 15:23 | 39.48480 | -106.97462 | 12834 ft | 249 kts | 210° |
| 2026-04-27 15:23 | 39.46853 | -106.98292 | 12681 ft | 251 kts | 195° |
| 2026-04-27 15:24 | 39.45123 | -106.98559 | 12515 ft | 252 kts | 180° |
| 2026-04-27 15:24 | 39.43372 | -106.98261 | 12354 ft | 253 kts | 169° |
| 2026-04-27 15:24 | 39.41656 | -106.97755 | 12167 ft | 253 kts | 169° |
| 2026-04-27 15:24 | 39.39913 | -106.97250 | 11859 ft | 255 kts | 168° |
| 2026-04-27 15:25 | 39.38185 | -106.96738 | 11485 ft | 256 kts | 168° |
| 2026-04-27 15:25 | 39.36453 | -106.96226 | 11172 ft | 251 kts | 168° |
| 2026-04-27 15:25 | 39.34750 | -106.95729 | 10787 ft | 248 kts | 168° |
| 2026-04-27 15:25 | 39.33111 | -106.95254 | 10407 ft | 230 kts | 168° |
| 2026-04-27 15:26 | 39.31657 | -106.94702 | 10121 ft | 211 kts | 156° |
| 2026-04-27 15:26 | 39.30477 | -106.93675 | 9723 ft | 202 kts | 135° |
| 2026-04-27 15:26 | 39.29672 | -106.92218 | 9460 ft | 197 kts | 117° |
| 2026-04-27 15:26 | 39.29069 | -106.90688 | 9126 ft | 187 kts | 127° |
| 2026-04-27 15:27 | 39.28099 | -106.89674 | 8852 ft | 171 kts | 154° |
| 2026-04-27 15:27 | 39.27074 | -106.89169 | 8698 ft | 144 kts | 160° |
| 2026-04-27 15:27 | 39.26105 | -106.88708 | 8641 ft | 154 kts | 159° |
| 2026-04-27 15:27 | 39.25124 | -106.88232 | 8227 ft | 151 kts | 160° |
| 2026-04-27 15:28 | 39.24157 | -106.87764 | 7821 ft | 140 kts | 159° |
| 2026-04-27 15:28 | 39.23241 | -106.87326 | 7729 ft | 142 kts | 160° |
| 2026-04-27 15:28 | 39.22375 | -106.86913 | 7743 ft | 115 kts | 158° |
| 2026-04-27 15:28 | 39.21939 | -106.86706 | 7776 ft | 21 kts | 160° |
| 2026-04-27 15:29 | 39.21876 | -106.86618 | 7784 ft | 10 kts | 111° |
| 2026-04-27 15:29 | 39.21922 | -106.86571 | 7784 ft | 13 kts | 336° |
| 2026-04-27 15:29 | 39.21979 | -106.86599 | 7780 ft | 12 kts | 340° |
| 2026-04-27 15:29 | 39.22100 | -106.86657 | 7771 ft | 24 kts | 340° |
| 2026-04-27 15:30 | 39.22217 | -106.86712 | 7761 ft | 18 kts | 340° |
| 2026-04-27 15:30 | 39.22346 | -106.86774 | 7751 ft | 17 kts | 340° |
| 2026-04-27 15:30 | 39.22492 | -106.86842 | 7739 ft | 21 kts | 340° |
| 2026-04-27 15:30 | 39.22649 | -106.86918 | 7727 ft | 24 kts | 338° |
| 2026-04-27 15:31 | 39.22804 | -106.86994 | 7715 ft | 15 kts | 340° |
| 2026-04-27 15:31 | 39.22847 | -106.86955 | 7714 ft | 9 kts | 164° |
| 2026-04-27 15:31 | 39.22823 | -106.86962 | 7715 ft | 0 kts | 207° |